sensor_id;sensor_type;location;lat;lon;timestamp;temperature;humidity
17154;DHT22;8692;52.164;7.558;2022-09-30T00:01:37;8.20;99.90
17154;DHT22;8692;52.164;7.558;2022-09-30T00:04:12;8.20;99.90
17154;DHT22;8692;52.164;7.558;2022-09-30T00:06:44;8.20;99.90
17154;DHT22;8692;52.164;7.558;2022-09-30T00:09:13;8.10;99.90
17154;DHT22;8692;52.164;7.558;2022-09-30T00:11:45;8.10;99.90
17154;DHT22;8692;52.164;7.558;2022-09-30T00:14:15;8.10;99.90
17154;DHT22;8692;52.164;7.558;2022-09-30T00:16:44;8.10;99.90
17154;DHT22;8692;52.164;7.558;2022-09-30T00:19:12;8.00;99.90
17154;DHT22;8692;52.164;7.558;2022-09-30T00:21:41;8.00;99.90
17154;DHT22;8692;52.164;7.558;2022-09-30T00:24:09;8.00;99.90
17154;DHT22;8692;52.164;7.558;2022-09-30T00:26:37;8.00;99.90
17154;DHT22;8692;52.164;7.558;2022-09-30T00:29:08;7.90;99.90
17154;DHT22;8692;52.164;7.558;2022-09-30T00:31:38;7.90;99.90
17154;DHT22;8692;52.164;7.558;2022-09-30T00:34:09;7.90;99.90
17154;DHT22;8692;52.164;7.558;2022-09-30T00:36:40;7.90;99.90
17154;DHT22;8692;52.164;7.558;2022-09-30T00:39:14;7.90;99.90
17154;DHT22;8692;52.164;7.558;2022-09-30T00:41:43;7.90;99.90
17154;DHT22;8692;52.164;7.558;2022-09-30T00:44:42;7.80;99.90
17154;DHT22;8692;52.164;7.558;2022-09-30T00:50:34;7.70;99.90
17154;DHT22;8692;52.164;7.558;2022-09-30T00:53:08;7.70;99.90
17154;DHT22;8692;52.164;7.558;2022-09-30T00:55:43;7.70;99.90
17154;DHT22;8692;52.164;7.558;2022-09-30T00:58:20;7.60;99.90
17154;DHT22;8692;52.164;7.558;2022-09-30T01:00:51;7.60;99.90
17154;DHT22;8692;52.164;7.558;2022-09-30T01:03:20;7.60;99.90
17154;DHT22;8692;52.164;7.558;2022-09-30T01:05:51;7.60;99.90
17154;DHT22;8692;52.164;7.558;2022-09-30T01:08:22;7.50;99.90
17154;DHT22;8692;52.164;7.558;2022-09-30T01:10:51;7.50;99.90
17154;DHT22;8692;52.164;7.558;2022-09-30T01:13:24;7.50;99.90
17154;DHT22;8692;52.164;7.558;2022-09-30T01:16:06;7.50;99.90
17154;DHT22;8692;52.164;7.558;2022-09-30T01:18:50;7.50;99.90
17154;DHT22;8692;52.164;7.558;2022-09-30T01:21:45;7.40;99.90
17154;DHT22;8692;52.164;7.558;2022-09-30T01:24:41;7.40;99.90
17154;DHT22;8692;52.164;7.558;2022-09-30T01:27:21;7.40;99.90
17154;DHT22;8692;52.164;7.558;2022-09-30T01:30:04;7.40;99.90
17154;DHT22;8692;52.164;7.558;2022-09-30T01:33:08;7.30;99.90
17154;DHT22;8692;52.164;7.558;2022-09-30T01:35:47;7.30;99.90
17154;DHT22;8692;52.164;7.558;2022-09-30T01:38:25;7.30;99.90
17154;DHT22;8692;52.164;7.558;2022-09-30T01:41:02;7.30;99.90
17154;DHT22;8692;52.164;7.558;2022-09-30T01:43:38;7.30;99.90
17154;DHT22;8692;52.164;7.558;2022-09-30T01:46:17;7.20;99.90
17154;DHT22;8692;52.164;7.558;2022-09-30T01:48:52;7.20;99.90
17154;DHT22;8692;52.164;7.558;2022-09-30T01:51:29;7.20;99.90
17154;DHT22;8692;52.164;7.558;2022-09-30T01:54:03;7.20;99.90
17154;DHT22;8692;52.164;7.558;2022-09-30T01:56:36;7.20;99.90
17154;DHT22;8692;52.164;7.558;2022-09-30T01:59:08;7.10;99.90
17154;DHT22;8692;52.164;7.558;2022-09-30T02:01:44;7.10;99.90
17154;DHT22;8692;52.164;7.558;2022-09-30T02:04:19;7.10;99.90
17154;DHT22;8692;52.164;7.558;2022-09-30T02:06:52;7.10;99.90
17154;DHT22;8692;52.164;7.558;2022-09-30T02:09:26;7.10;99.90
17154;DHT22;8692;52.164;7.558;2022-09-30T02:11:58;7.00;99.90
17154;DHT22;8692;52.164;7.558;2022-09-30T02:14:34;7.00;99.90
17154;DHT22;8692;52.164;7.558;2022-09-30T02:17:08;7.00;99.90
17154;DHT22;8692;52.164;7.558;2022-09-30T02:19:42;7.00;99.90
17154;DHT22;8692;52.164;7.558;2022-09-30T02:22:15;7.00;99.90
17154;DHT22;8692;52.164;7.558;2022-09-30T02:24:46;7.00;99.90
17154;DHT22;8692;52.164;7.558;2022-09-30T02:27:24;7.00;99.90
17154;DHT22;8692;52.164;7.558;2022-09-30T02:29:56;6.90;99.90
17154;DHT22;8692;52.164;7.558;2022-09-30T02:32:29;6.90;99.90
17154;DHT22;8692;52.164;7.558;2022-09-30T02:35:02;6.90;99.90
17154;DHT22;8692;52.164;7.558;2022-09-30T02:37:34;6.90;99.90
17154;DHT22;8692;52.164;7.558;2022-09-30T02:40:08;6.80;99.90
17154;DHT22;8692;52.164;7.558;2022-09-30T02:42:42;6.80;99.90
17154;DHT22;8692;52.164;7.558;2022-09-30T02:45:14;6.80;99.90
17154;DHT22;8692;52.164;7.558;2022-09-30T02:47:50;6.80;99.90
17154;DHT22;8692;52.164;7.558;2022-09-30T02:50:30;6.80;99.90
17154;DHT22;8692;52.164;7.558;2022-09-30T02:53:12;6.80;99.90
17154;DHT22;8692;52.164;7.558;2022-09-30T02:55:59;6.80;99.90
17154;DHT22;8692;52.164;7.558;2022-09-30T02:58:29;6.80;99.90
17154;DHT22;8692;52.164;7.558;2022-09-30T03:01:02;6.80;99.90
17154;DHT22;8692;52.164;7.558;2022-09-30T03:03:36;6.80;99.90
17154;DHT22;8692;52.164;7.558;2022-09-30T03:06:08;6.80;99.90
17154;DHT22;8692;52.164;7.558;2022-09-30T03:08:36;6.70;99.90
17154;DHT22;8692;52.164;7.558;2022-09-30T03:11:11;6.70;99.90
17154;DHT22;8692;52.164;7.558;2022-09-30T03:14:15;6.70;99.90
17154;DHT22;8692;52.164;7.558;2022-09-30T03:20:10;6.70;99.90
17154;DHT22;8692;52.164;7.558;2022-09-30T03:22:58;6.60;99.90
17154;DHT22;8692;52.164;7.558;2022-09-30T03:25:39;6.60;99.90
17154;DHT22;8692;52.164;7.558;2022-09-30T03:28:18;6.60;99.90
17154;DHT22;8692;52.164;7.558;2022-09-30T03:30:58;6.60;99.90
17154;DHT22;8692;52.164;7.558;2022-09-30T03:33:38;6.60;99.90
17154;DHT22;8692;52.164;7.558;2022-09-30T03:36:15;6.60;99.90
17154;DHT22;8692;52.164;7.558;2022-09-30T03:38:53;6.60;99.90
17154;DHT22;8692;52.164;7.558;2022-09-30T03:41:32;6.60;99.90
17154;DHT22;8692;52.164;7.558;2022-09-30T03:44:06;6.50;99.90
17154;DHT22;8692;52.164;7.558;2022-09-30T03:46:39;6.50;99.90
17154;DHT22;8692;52.164;7.558;2022-09-30T03:49:13;6.50;99.90
17154;DHT22;8692;52.164;7.558;2022-09-30T03:51:42;6.50;99.90
17154;DHT22;8692;52.164;7.558;2022-09-30T03:54:14;6.50;99.90
17154;DHT22;8692;52.164;7.558;2022-09-30T03:56:42;6.50;99.90
17154;DHT22;8692;52.164;7.558;2022-09-30T03:59:11;6.40;99.90
17154;DHT22;8692;52.164;7.558;2022-09-30T04:01:40;6.40;99.90
17154;DHT22;8692;52.164;7.558;2022-09-30T04:04:09;6.40;99.90
17154;DHT22;8692;52.164;7.558;2022-09-30T04:06:40;6.40;99.90
17154;DHT22;8692;52.164;7.558;2022-09-30T04:09:08;6.40;99.90
17154;DHT22;8692;52.164;7.558;2022-09-30T04:11:38;6.40;99.90
17154;DHT22;8692;52.164;7.558;2022-09-30T04:14:09;6.40;99.90
17154;DHT22;8692;52.164;7.558;2022-09-30T04:16:37;6.40;99.90
17154;DHT22;8692;52.164;7.558;2022-09-30T04:19:06;6.30;99.90
17154;DHT22;8692;52.164;7.558;2022-09-30T04:21:36;6.30;99.90
17154;DHT22;8692;52.164;7.558;2022-09-30T04:24:05;6.30;99.90
17154;DHT22;8692;52.164;7.558;2022-09-30T04:26:33;6.30;99.90
17154;DHT22;8692;52.164;7.558;2022-09-30T04:29:03;6.30;99.90
17154;DHT22;8692;52.164;7.558;2022-09-30T04:31:31;6.30;99.90
17154;DHT22;8692;52.164;7.558;2022-09-30T04:34:00;6.30;99.90
17154;DHT22;8692;52.164;7.558;2022-09-30T04:36:28;6.30;99.90
17154;DHT22;8692;52.164;7.558;2022-09-30T04:38:56;6.20;99.90
17154;DHT22;8692;52.164;7.558;2022-09-30T04:41:24;6.30;99.90
17154;DHT22;8692;52.164;7.558;2022-09-30T04:43:53;6.20;99.90
17154;DHT22;8692;52.164;7.558;2022-09-30T04:46:22;6.20;99.90
17154;DHT22;8692;52.164;7.558;2022-09-30T04:48:51;6.20;99.90
17154;DHT22;8692;52.164;7.558;2022-09-30T04:51:20;6.20;99.90
17154;DHT22;8692;52.164;7.558;2022-09-30T04:53:50;6.20;99.90
17154;DHT22;8692;52.164;7.558;2022-09-30T04:56:18;6.20;99.90
17154;DHT22;8692;52.164;7.558;2022-09-30T04:58:46;6.20;99.90
17154;DHT22;8692;52.164;7.558;2022-09-30T05:01:16;6.20;99.90
17154;DHT22;8692;52.164;7.558;2022-09-30T05:03:46;6.20;99.90
17154;DHT22;8692;52.164;7.558;2022-09-30T05:06:15;6.10;99.90
17154;DHT22;8692;52.164;7.558;2022-09-30T05:08:43;6.20;99.90
17154;DHT22;8692;52.164;7.558;2022-09-30T05:11:15;6.10;99.90
17154;DHT22;8692;52.164;7.558;2022-09-30T05:13:45;6.10;99.90
17154;DHT22;8692;52.164;7.558;2022-09-30T05:16:15;6.00;99.90
17154;DHT22;8692;52.164;7.558;2022-09-30T05:18:44;6.10;99.90
17154;DHT22;8692;52.164;7.558;2022-09-30T05:21:16;6.10;99.90
17154;DHT22;8692;52.164;7.558;2022-09-30T05:23:46;6.10;99.90
17154;DHT22;8692;52.164;7.558;2022-09-30T05:26:15;6.10;99.90
17154;DHT22;8692;52.164;7.558;2022-09-30T05:28:43;6.10;99.90
17154;DHT22;8692;52.164;7.558;2022-09-30T05:31:11;6.10;99.90
17154;DHT22;8692;52.164;7.558;2022-09-30T05:33:40;6.00;99.90
17154;DHT22;8692;52.164;7.558;2022-09-30T05:36:12;6.10;99.90
17154;DHT22;8692;52.164;7.558;2022-09-30T05:38:42;6.00;99.90
17154;DHT22;8692;52.164;7.558;2022-09-30T05:41:12;6.00;99.90
17154;DHT22;8692;52.164;7.558;2022-09-30T05:43:41;6.00;99.90
17154;DHT22;8692;52.164;7.558;2022-09-30T05:46:11;6.00;99.90
17154;DHT22;8692;52.164;7.558;2022-09-30T05:48:39;6.00;99.90
17154;DHT22;8692;52.164;7.558;2022-09-30T05:51:07;6.00;99.90
17154;DHT22;8692;52.164;7.558;2022-09-30T05:53:36;5.90;99.90
17154;DHT22;8692;52.164;7.558;2022-09-30T05:56:07;5.90;99.90
17154;DHT22;8692;52.164;7.558;2022-09-30T05:58:37;5.90;99.90
17154;DHT22;8692;52.164;7.558;2022-09-30T06:01:07;5.90;99.90
17154;DHT22;8692;52.164;7.558;2022-09-30T06:03:40;5.90;99.90
17154;DHT22;8692;52.164;7.558;2022-09-30T06:06:08;5.90;99.90
17154;DHT22;8692;52.164;7.558;2022-09-30T06:08:38;6.00;99.90
17154;DHT22;8692;52.164;7.558;2022-09-30T06:11:09;6.00;99.90
17154;DHT22;8692;52.164;7.558;2022-09-30T06:13:39;6.00;99.90
17154;DHT22;8692;52.164;7.558;2022-09-30T06:16:08;6.00;99.90
17154;DHT22;8692;52.164;7.558;2022-09-30T06:18:40;6.00;99.90
17154;DHT22;8692;52.164;7.558;2022-09-30T06:21:12;6.10;99.90
17154;DHT22;8692;52.164;7.558;2022-09-30T06:23:41;6.10;99.90
17154;DHT22;8692;52.164;7.558;2022-09-30T06:26:12;6.10;99.90
17154;DHT22;8692;52.164;7.558;2022-09-30T06:28:40;6.10;99.90
17154;DHT22;8692;52.164;7.558;2022-09-30T06:31:09;6.10;99.90
17154;DHT22;8692;52.164;7.558;2022-09-30T06:33:42;6.10;99.90
17154;DHT22;8692;52.164;7.558;2022-09-30T06:36:10;6.10;99.90
17154;DHT22;8692;52.164;7.558;2022-09-30T06:38:40;6.20;99.90
17154;DHT22;8692;52.164;7.558;2022-09-30T06:41:08;6.20;99.90
17154;DHT22;8692;52.164;7.558;2022-09-30T06:43:38;6.20;99.90
17154;DHT22;8692;52.164;7.558;2022-09-30T06:46:21;6.20;99.90
17154;DHT22;8692;52.164;7.558;2022-09-30T06:48:56;6.20;99.90
17154;DHT22;8692;52.164;7.558;2022-09-30T06:51:40;6.20;99.90
17154;DHT22;8692;52.164;7.558;2022-09-30T06:54:10;6.30;99.90
17154;DHT22;8692;52.164;7.558;2022-09-30T06:56:41;6.30;99.90
17154;DHT22;8692;52.164;7.558;2022-09-30T06:59:11;6.40;99.90
17154;DHT22;8692;52.164;7.558;2022-09-30T07:01:42;6.40;99.90
17154;DHT22;8692;52.164;7.558;2022-09-30T07:04:13;6.40;99.90
17154;DHT22;8692;52.164;7.558;2022-09-30T07:06:42;6.50;99.90
17154;DHT22;8692;52.164;7.558;2022-09-30T07:09:10;6.50;99.90
17154;DHT22;8692;52.164;7.558;2022-09-30T07:11:39;6.50;99.90
17154;DHT22;8692;52.164;7.558;2022-09-30T07:14:11;6.60;99.90
17154;DHT22;8692;52.164;7.558;2022-09-30T07:16:40;6.60;99.90
17154;DHT22;8692;52.164;7.558;2022-09-30T07:19:11;6.70;99.90
17154;DHT22;8692;52.164;7.558;2022-09-30T07:21:40;6.70;99.90
17154;DHT22;8692;52.164;7.558;2022-09-30T07:24:08;6.80;99.90
17154;DHT22;8692;52.164;7.558;2022-09-30T07:26:37;6.80;99.90
17154;DHT22;8692;52.164;7.558;2022-09-30T07:29:06;6.80;99.90
17154;DHT22;8692;52.164;7.558;2022-09-30T07:31:35;7.00;99.90
17154;DHT22;8692;52.164;7.558;2022-09-30T07:34:04;7.00;99.90
17154;DHT22;8692;52.164;7.558;2022-09-30T07:36:34;7.10;99.90
17154;DHT22;8692;52.164;7.558;2022-09-30T07:39:06;7.10;99.90
17154;DHT22;8692;52.164;7.558;2022-09-30T07:41:36;7.20;99.90
17154;DHT22;8692;52.164;7.558;2022-09-30T07:44:09;7.30;99.90
17154;DHT22;8692;52.164;7.558;2022-09-30T07:46:43;7.40;99.90
17154;DHT22;8692;52.164;7.558;2022-09-30T07:49:15;7.50;99.90
17154;DHT22;8692;52.164;7.558;2022-09-30T07:51:53;7.50;99.90
17154;DHT22;8692;52.164;7.558;2022-09-30T07:54:23;7.60;99.90
17154;DHT22;8692;52.164;7.558;2022-09-30T07:56:51;7.70;99.90
17154;DHT22;8692;52.164;7.558;2022-09-30T07:59:39;7.70;99.90
17154;DHT22;8692;52.164;7.558;2022-09-30T08:02:14;7.90;99.90
17154;DHT22;8692;52.164;7.558;2022-09-30T08:04:43;7.90;99.90
17154;DHT22;8692;52.164;7.558;2022-09-30T08:07:12;8.00;99.90
17154;DHT22;8692;52.164;7.558;2022-09-30T08:09:40;8.10;99.90
17154;DHT22;8692;52.164;7.558;2022-09-30T08:12:09;8.20;99.90
17154;DHT22;8692;52.164;7.558;2022-09-30T08:14:39;8.20;99.90
17154;DHT22;8692;52.164;7.558;2022-09-30T08:17:07;8.30;99.90
17154;DHT22;8692;52.164;7.558;2022-09-30T08:19:37;8.50;99.90
17154;DHT22;8692;52.164;7.558;2022-09-30T08:22:09;8.50;99.90
17154;DHT22;8692;52.164;7.558;2022-09-30T08:24:39;8.60;99.90
17154;DHT22;8692;52.164;7.558;2022-09-30T08:27:07;8.70;99.90
17154;DHT22;8692;52.164;7.558;2022-09-30T08:29:38;8.80;99.90
17154;DHT22;8692;52.164;7.558;2022-09-30T08:32:20;9.00;99.90
17154;DHT22;8692;52.164;7.558;2022-09-30T08:34:52;9.10;99.90
17154;DHT22;8692;52.164;7.558;2022-09-30T08:37:22;9.20;99.90
17154;DHT22;8692;52.164;7.558;2022-09-30T08:39:50;9.30;99.90
17154;DHT22;8692;52.164;7.558;2022-09-30T08:42:33;9.40;99.90
17154;DHT22;8692;52.164;7.558;2022-09-30T08:45:21;9.60;99.90
17154;DHT22;8692;52.164;7.558;2022-09-30T08:48:01;9.70;99.90
17154;DHT22;8692;52.164;7.558;2022-09-30T08:50:46;9.90;99.90
17154;DHT22;8692;52.164;7.558;2022-09-30T08:53:22;10.00;99.90
17154;DHT22;8692;52.164;7.558;2022-09-30T08:55:53;10.10;99.90
17154;DHT22;8692;52.164;7.558;2022-09-30T08:58:26;10.20;99.90
17154;DHT22;8692;52.164;7.558;2022-09-30T09:01:01;10.30;99.90
17154;DHT22;8692;52.164;7.558;2022-09-30T09:03:32;10.50;99.90
17154;DHT22;8692;52.164;7.558;2022-09-30T09:06:14;10.60;99.90
17154;DHT22;8692;52.164;7.558;2022-09-30T09:08:56;10.70;99.90
17154;DHT22;8692;52.164;7.558;2022-09-30T09:11:49;10.80;99.90
17154;DHT22;8692;52.164;7.558;2022-09-30T09:14:29;11.00;99.90
17154;DHT22;8692;52.164;7.558;2022-09-30T09:17:09;11.20;99.90
17154;DHT22;8692;52.164;7.558;2022-09-30T09:19:45;11.30;99.90
17154;DHT22;8692;52.164;7.558;2022-09-30T09:22:18;11.50;99.90
17154;DHT22;8692;52.164;7.558;2022-09-30T09:24:50;11.60;99.90
17154;DHT22;8692;52.164;7.558;2022-09-30T09:27:24;11.80;99.90
17154;DHT22;8692;52.164;7.558;2022-09-30T09:30:08;11.90;99.90
17154;DHT22;8692;52.164;7.558;2022-09-30T09:32:37;12.00;99.90
17154;DHT22;8692;52.164;7.558;2022-09-30T09:35:14;12.10;99.90
17154;DHT22;8692;52.164;7.558;2022-09-30T09:37:51;12.30;99.90
17154;DHT22;8692;52.164;7.558;2022-09-30T09:40:46;12.40;99.90
17154;DHT22;8692;52.164;7.558;2022-09-30T09:43:31;12.50;99.90
17154;DHT22;8692;52.164;7.558;2022-09-30T09:46:11;12.60;99.90
17154;DHT22;8692;52.164;7.558;2022-09-30T09:48:42;12.70;99.90
17154;DHT22;8692;52.164;7.558;2022-09-30T09:51:18;12.80;99.90
17154;DHT22;8692;52.164;7.558;2022-09-30T09:53:52;12.90;99.90
17154;DHT22;8692;52.164;7.558;2022-09-30T09:56:28;13.00;99.90
17154;DHT22;8692;52.164;7.558;2022-09-30T09:59:07;13.10;99.90
17154;DHT22;8692;52.164;7.558;2022-09-30T10:01:40;13.20;99.90
17154;DHT22;8692;52.164;7.558;2022-09-30T10:04:14;13.30;99.90
17154;DHT22;8692;52.164;7.558;2022-09-30T10:06:48;13.40;99.90
17154;DHT22;8692;52.164;7.558;2022-09-30T10:09:30;13.50;99.90
17154;DHT22;8692;52.164;7.558;2022-09-30T10:12:25;13.60;99.90
17154;DHT22;8692;52.164;7.558;2022-09-30T10:14:58;13.70;99.90
17154;DHT22;8692;52.164;7.558;2022-09-30T10:17:30;13.90;99.90
17154;DHT22;8692;52.164;7.558;2022-09-30T10:20:02;14.00;99.90
17154;DHT22;8692;52.164;7.558;2022-09-30T10:22:34;14.00;99.90
17154;DHT22;8692;52.164;7.558;2022-09-30T10:25:19;14.10;99.90
17154;DHT22;8692;52.164;7.558;2022-09-30T10:27:53;14.20;99.90
17154;DHT22;8692;52.164;7.558;2022-09-30T10:30:42;14.20;99.90
17154;DHT22;8692;52.164;7.558;2022-09-30T10:33:21;14.30;99.90
17154;DHT22;8692;52.164;7.558;2022-09-30T10:35:55;14.40;99.90
17154;DHT22;8692;52.164;7.558;2022-09-30T10:38:25;14.50;99.90
17154;DHT22;8692;52.164;7.558;2022-09-30T10:40:58;14.50;99.90
17154;DHT22;8692;52.164;7.558;2022-09-30T10:43:33;14.60;99.90
17154;DHT22;8692;52.164;7.558;2022-09-30T10:46:03;14.60;99.90
17154;DHT22;8692;52.164;7.558;2022-09-30T10:48:52;14.70;99.90
17154;DHT22;8692;52.164;7.558;2022-09-30T10:51:30;14.70;99.90
17154;DHT22;8692;52.164;7.558;2022-09-30T10:54:05;14.80;99.90
17154;DHT22;8692;52.164;7.558;2022-09-30T10:56:41;14.90;99.90
17154;DHT22;8692;52.164;7.558;2022-09-30T10:59:24;14.90;99.90
17154;DHT22;8692;52.164;7.558;2022-09-30T11:02:02;15.00;99.90
17154;DHT22;8692;52.164;7.558;2022-09-30T11:04:35;15.10;99.90
17154;DHT22;8692;52.164;7.558;2022-09-30T11:07:14;15.20;99.90
17154;DHT22;8692;52.164;7.558;2022-09-30T11:09:48;15.20;99.90
17154;DHT22;8692;52.164;7.558;2022-09-30T11:12:25;15.20;99.90
17154;DHT22;8692;52.164;7.558;2022-09-30T11:15:03;15.30;99.90
17154;DHT22;8692;52.164;7.558;2022-09-30T11:17:41;15.40;99.90
17154;DHT22;8692;52.164;7.558;2022-09-30T11:20:20;15.40;99.90
17154;DHT22;8692;52.164;7.558;2022-09-30T11:22:55;15.50;99.90
17154;DHT22;8692;52.164;7.558;2022-09-30T11:25:38;15.60;99.90
17154;DHT22;8692;52.164;7.558;2022-09-30T11:28:27;15.60;99.90
17154;DHT22;8692;52.164;7.558;2022-09-30T11:31:10;15.60;99.90
17154;DHT22;8692;52.164;7.558;2022-09-30T11:33:58;15.70;99.90
17154;DHT22;8692;52.164;7.558;2022-09-30T11:36:37;15.80;99.90
17154;DHT22;8692;52.164;7.558;2022-09-30T11:42:19;15.90;99.90
17154;DHT22;8692;52.164;7.558;2022-09-30T11:44:59;16.00;99.90
17154;DHT22;8692;52.164;7.558;2022-09-30T11:47:41;15.90;99.90
17154;DHT22;8692;52.164;7.558;2022-09-30T11:50:33;15.90;99.90
17154;DHT22;8692;52.164;7.558;2022-09-30T11:53:16;15.90;99.90
17154;DHT22;8692;52.164;7.558;2022-09-30T11:56:02;15.90;99.90
17154;DHT22;8692;52.164;7.558;2022-09-30T11:58:36;15.80;99.90
17154;DHT22;8692;52.164;7.558;2022-09-30T12:01:17;15.80;99.90
17154;DHT22;8692;52.164;7.558;2022-09-30T12:03:55;15.80;99.20
17154;DHT22;8692;52.164;7.558;2022-09-30T12:06:29;15.90;98.30
17154;DHT22;8692;52.164;7.558;2022-09-30T12:09:05;15.90;98.10
17154;DHT22;8692;52.164;7.558;2022-09-30T12:11:43;16.00;97.60
17154;DHT22;8692;52.164;7.558;2022-09-30T12:14:19;16.00;98.50
17154;DHT22;8692;52.164;7.558;2022-09-30T12:16:50;16.10;98.70
17154;DHT22;8692;52.164;7.558;2022-09-30T12:19:24;16.10;95.20
17154;DHT22;8692;52.164;7.558;2022-09-30T12:21:59;16.20;95.20
17154;DHT22;8692;52.164;7.558;2022-09-30T12:24:35;16.30;94.70
17154;DHT22;8692;52.164;7.558;2022-09-30T12:27:05;16.30;96.20
17154;DHT22;8692;52.164;7.558;2022-09-30T12:29:41;16.40;95.60
17154;DHT22;8692;52.164;7.558;2022-09-30T12:32:52;16.40;95.00
17154;DHT22;8692;52.164;7.558;2022-09-30T12:38:32;16.40;92.60
17154;DHT22;8692;52.164;7.558;2022-09-30T12:41:17;16.40;93.60
17154;DHT22;8692;52.164;7.558;2022-09-30T12:46:53;16.30;94.20
17154;DHT22;8692;52.164;7.558;2022-09-30T12:49:28;16.40;94.80
17154;DHT22;8692;52.164;7.558;2022-09-30T12:52:02;16.50;93.90
17154;DHT22;8692;52.164;7.558;2022-09-30T12:54:32;16.50;92.90
17154;DHT22;8692;52.164;7.558;2022-09-30T12:57:03;16.60;93.20
17154;DHT22;8692;52.164;7.558;2022-09-30T12:59:37;16.60;93.50
17154;DHT22;8692;52.164;7.558;2022-09-30T13:02:26;16.60;93.80
17154;DHT22;8692;52.164;7.558;2022-09-30T13:08:31;16.70;92.00
17154;DHT22;8692;52.164;7.558;2022-09-30T13:11:04;16.70;92.50
17154;DHT22;8692;52.164;7.558;2022-09-30T13:13:55;16.70;92.30
17154;DHT22;8692;52.164;7.558;2022-09-30T13:19:32;16.70;92.80
17154;DHT22;8692;52.164;7.558;2022-09-30T13:22:41;16.70;93.70
17154;DHT22;8692;52.164;7.558;2022-09-30T13:25:12;16.60;93.40
17154;DHT22;8692;52.164;7.558;2022-09-30T13:27:44;16.60;94.80
17154;DHT22;8692;52.164;7.558;2022-09-30T13:30:36;16.70;92.50
17154;DHT22;8692;52.164;7.558;2022-09-30T13:33:29;16.70;92.00
17154;DHT22;8692;52.164;7.558;2022-09-30T13:36:05;16.60;91.80
17154;DHT22;8692;52.164;7.558;2022-09-30T13:38:39;16.50;90.80
17154;DHT22;8692;52.164;7.558;2022-09-30T13:41:15;16.50;92.00
17154;DHT22;8692;52.164;7.558;2022-09-30T13:43:47;16.50;91.80
17154;DHT22;8692;52.164;7.558;2022-09-30T13:46:23;16.60;91.70
17154;DHT22;8692;52.164;7.558;2022-09-30T13:48:59;16.60;92.40
17154;DHT22;8692;52.164;7.558;2022-09-30T13:51:30;16.70;92.50
17154;DHT22;8692;52.164;7.558;2022-09-30T13:54:05;16.70;91.40
17154;DHT22;8692;52.164;7.558;2022-09-30T13:56:37;16.80;90.20
17154;DHT22;8692;52.164;7.558;2022-09-30T13:59:21;16.80;90.00
17154;DHT22;8692;52.164;7.558;2022-09-30T14:02:12;16.80;90.00
17154;DHT22;8692;52.164;7.558;2022-09-30T14:04:56;16.70;88.70
17154;DHT22;8692;52.164;7.558;2022-09-30T14:07:41;16.70;89.40
17154;DHT22;8692;52.164;7.558;2022-09-30T14:10:27;16.70;89.50
17154;DHT22;8692;52.164;7.558;2022-09-30T14:13:09;16.80;88.10
17154;DHT22;8692;52.164;7.558;2022-09-30T14:19:02;16.90;88.50
17154;DHT22;8692;52.164;7.558;2022-09-30T14:21:36;17.00;88.50
17154;DHT22;8692;52.164;7.558;2022-09-30T14:24:11;16.90;88.00
17154;DHT22;8692;52.164;7.558;2022-09-30T14:26:57;16.90;86.60
17154;DHT22;8692;52.164;7.558;2022-09-30T14:29:34;17.00;88.80
17154;DHT22;8692;52.164;7.558;2022-09-30T14:32:10;17.00;88.70
17154;DHT22;8692;52.164;7.558;2022-09-30T14:34:41;17.00;88.00
17154;DHT22;8692;52.164;7.558;2022-09-30T14:37:16;17.10;87.40
17154;DHT22;8692;52.164;7.558;2022-09-30T14:39:49;17.00;87.90
17154;DHT22;8692;52.164;7.558;2022-09-30T14:42:24;17.00;86.70
17154;DHT22;8692;52.164;7.558;2022-09-30T14:44:54;17.00;88.50
17154;DHT22;8692;52.164;7.558;2022-09-30T14:47:32;16.90;88.70
17154;DHT22;8692;52.164;7.558;2022-09-30T14:50:01;16.90;87.50
17154;DHT22;8692;52.164;7.558;2022-09-30T14:52:35;16.80;84.90
17154;DHT22;8692;52.164;7.558;2022-09-30T14:55:18;16.70;85.80
17154;DHT22;8692;52.164;7.558;2022-09-30T14:57:50;16.60;87.40
17154;DHT22;8692;52.164;7.558;2022-09-30T15:00:21;16.60;88.60
17154;DHT22;8692;52.164;7.558;2022-09-30T15:02:50;16.50;89.10
17154;DHT22;8692;52.164;7.558;2022-09-30T15:05:20;16.50;90.20
17154;DHT22;8692;52.164;7.558;2022-09-30T15:07:51;16.50;90.70
17154;DHT22;8692;52.164;7.558;2022-09-30T15:10:24;16.50;91.30
17154;DHT22;8692;52.164;7.558;2022-09-30T15:12:54;16.50;91.20
17154;DHT22;8692;52.164;7.558;2022-09-30T15:15:25;16.40;91.40
17154;DHT22;8692;52.164;7.558;2022-09-30T15:17:54;16.40;91.00
17154;DHT22;8692;52.164;7.558;2022-09-30T15:20:29;16.30;91.10
17154;DHT22;8692;52.164;7.558;2022-09-30T15:23:02;16.30;91.70
17154;DHT22;8692;52.164;7.558;2022-09-30T15:25:33;16.30;92.40
17154;DHT22;8692;52.164;7.558;2022-09-30T15:28:03;16.20;92.30
17154;DHT22;8692;52.164;7.558;2022-09-30T15:30:34;16.20;93.20
17154;DHT22;8692;52.164;7.558;2022-09-30T15:33:04;16.20;92.90
17154;DHT22;8692;52.164;7.558;2022-09-30T15:35:35;16.10;92.70
17154;DHT22;8692;52.164;7.558;2022-09-30T15:38:08;16.10;92.70
17154;DHT22;8692;52.164;7.558;2022-09-30T15:40:43;16.00;93.10
17154;DHT22;8692;52.164;7.558;2022-09-30T15:43:30;16.00;93.70
17154;DHT22;8692;52.164;7.558;2022-09-30T15:46:21;16.00;93.10
17154;DHT22;8692;52.164;7.558;2022-09-30T15:48:53;15.90;93.80
17154;DHT22;8692;52.164;7.558;2022-09-30T15:51:24;15.90;94.20
17154;DHT22;8692;52.164;7.558;2022-09-30T15:53:56;15.90;94.60
17154;DHT22;8692;52.164;7.558;2022-09-30T15:56:31;15.80;94.90
17154;DHT22;8692;52.164;7.558;2022-09-30T15:59:04;15.70;95.10
17154;DHT22;8692;52.164;7.558;2022-09-30T16:01:35;15.70;95.10
17154;DHT22;8692;52.164;7.558;2022-09-30T16:04:06;15.70;95.60
17154;DHT22;8692;52.164;7.558;2022-09-30T16:06:44;15.60;96.00
17154;DHT22;8692;52.164;7.558;2022-09-30T16:09:23;15.60;95.60
17154;DHT22;8692;52.164;7.558;2022-09-30T16:12:03;15.50;96.10
17154;DHT22;8692;52.164;7.558;2022-09-30T16:14:38;15.50;97.10
17154;DHT22;8692;52.164;7.558;2022-09-30T16:17:15;15.50;97.70
17154;DHT22;8692;52.164;7.558;2022-09-30T16:19:50;15.50;97.90
17154;DHT22;8692;52.164;7.558;2022-09-30T16:22:47;15.50;97.80
17154;DHT22;8692;52.164;7.558;2022-09-30T16:25:20;15.40;98.10
17154;DHT22;8692;52.164;7.558;2022-09-30T16:27:53;15.40;98.40
17154;DHT22;8692;52.164;7.558;2022-09-30T16:30:25;15.40;98.90
17154;DHT22;8692;52.164;7.558;2022-09-30T16:32:55;15.40;99.60
17154;DHT22;8692;52.164;7.558;2022-09-30T16:35:26;15.30;99.90
17154;DHT22;8692;52.164;7.558;2022-09-30T16:37:59;15.20;99.90
17154;DHT22;8692;52.164;7.558;2022-09-30T16:40:31;15.20;99.90
17154;DHT22;8692;52.164;7.558;2022-09-30T16:43:00;15.10;99.80
17154;DHT22;8692;52.164;7.558;2022-09-30T16:45:35;15.10;99.90
17154;DHT22;8692;52.164;7.558;2022-09-30T16:48:08;15.10;99.90
17154;DHT22;8692;52.164;7.558;2022-09-30T16:50:40;15.00;99.90
17154;DHT22;8692;52.164;7.558;2022-09-30T16:53:12;15.00;99.90
17154;DHT22;8692;52.164;7.558;2022-09-30T16:55:40;14.90;99.90
17154;DHT22;8692;52.164;7.558;2022-09-30T16:58:09;14.90;99.90
17154;DHT22;8692;52.164;7.558;2022-09-30T17:00:42;14.80;99.90
17154;DHT22;8692;52.164;7.558;2022-09-30T17:03:12;14.70;99.90
17154;DHT22;8692;52.164;7.558;2022-09-30T17:05:41;14.70;99.90
17154;DHT22;8692;52.164;7.558;2022-09-30T17:08:11;14.70;99.90